sensor_id;sensor_type;location;lat;lon;timestamp;P1;durP1;ratioP1;P2;durP2;ratioP2
16820;SDS011;8527;49.740;6.604;2022-08-01T00:00:07;1.60;;;1.38;;
16820;SDS011;8527;49.740;6.604;2022-08-01T00:05:09;1.88;;;1.70;;
16820;SDS011;8527;49.740;6.604;2022-08-01T00:10:09;3.60;;;1.80;;
16820;SDS011;8527;49.740;6.604;2022-08-01T00:15:15;2.50;;;1.50;;
16820;SDS011;8527;49.740;6.604;2022-08-01T00:20:14;2.72;;;1.98;;
16820;SDS011;8527;49.740;6.604;2022-08-01T00:25:13;4.40;;;1.60;;
16820;SDS011;8527;49.740;6.604;2022-08-01T00:30:14;1.63;;;1.52;;
16820;SDS011;8527;49.740;6.604;2022-08-01T00:35:16;1.35;;;1.25;;
16820;SDS011;8527;49.740;6.604;2022-08-01T00:40:14;1.95;;;1.70;;
16820;SDS011;8527;49.740;6.604;2022-08-01T00:45:15;2.58;;;1.60;;
16820;SDS011;8527;49.740;6.604;2022-08-01T00:50:14;1.50;;;1.23;;
16820;SDS011;8527;49.740;6.604;2022-08-01T00:55:12;4.68;;;1.90;;
16820;SDS011;8527;49.740;6.604;2022-08-01T01:00:20;1.90;;;1.70;;
16820;SDS011;8527;49.740;6.604;2022-08-01T01:05:19;2.42;;;1.48;;
16820;SDS011;8527;49.740;6.604;2022-08-01T01:10:21;5.13;;;1.58;;
16820;SDS011;8527;49.740;6.604;2022-08-01T01:15:30;1.67;;;1.58;;
16820;SDS011;8527;49.740;6.604;2022-08-01T01:20:35;2.30;;;1.58;;
16820;SDS011;8527;49.740;6.604;2022-08-01T01:25:50;4.20;;;1.90;;
16820;SDS011;8527;49.740;6.604;2022-08-01T01:31:02;2.53;;;1.27;;
16820;SDS011;8527;49.740;6.604;2022-08-01T01:36:05;1.83;;;1.50;;
16820;SDS011;8527;49.740;6.604;2022-08-01T01:41:09;5.23;;;1.60;;
16820;SDS011;8527;49.740;6.604;2022-08-01T01:46:12;3.03;;;1.67;;
16820;SDS011;8527;49.740;6.604;2022-08-01T01:51:17;8.38;;;1.85;;
16820;SDS011;8527;49.740;6.604;2022-08-01T01:56:19;3.33;;;1.58;;
16820;SDS011;8527;49.740;6.604;2022-08-01T02:01:22;3.45;;;1.60;;
16820;SDS011;8527;49.740;6.604;2022-08-01T02:06:24;2.88;;;1.42;;
16820;SDS011;8527;49.740;6.604;2022-08-01T02:11:24;1.58;;;1.40;;
16820;SDS011;8527;49.740;6.604;2022-08-01T02:16:27;1.85;;;1.67;;
16820;SDS011;8527;49.740;6.604;2022-08-01T02:21:44;1.85;;;1.30;;
16820;SDS011;8527;49.740;6.604;2022-08-01T02:26:49;6.50;;;1.65;;
16820;SDS011;8527;49.740;6.604;2022-08-01T02:31:56;2.83;;;1.42;;
16820;SDS011;8527;49.740;6.604;2022-08-01T02:37:01;2.55;;;1.40;;
16820;SDS011;8527;49.740;6.604;2022-08-01T02:42:03;2.17;;;1.50;;
16820;SDS011;8527;49.740;6.604;2022-08-01T02:47:18;1.50;;;1.30;;
16820;SDS011;8527;49.740;6.604;2022-08-01T02:52:21;1.30;;;1.20;;
16820;SDS011;8527;49.740;6.604;2022-08-01T02:57:23;1.85;;;1.40;;
16820;SDS011;8527;49.740;6.604;2022-08-01T03:02:26;1.73;;;1.42;;
16820;SDS011;8527;49.740;6.604;2022-08-01T03:07:26;3.15;;;1.45;;
16820;SDS011;8527;49.740;6.604;2022-08-01T03:12:29;2.78;;;1.20;;
16820;SDS011;8527;49.740;6.604;2022-08-01T03:17:34;1.30;;;1.20;;
16820;SDS011;8527;49.740;6.604;2022-08-01T03:22:38;2.28;;;1.23;;
16820;SDS011;8527;49.740;6.604;2022-08-01T03:27:38;4.65;;;1.17;;
16820;SDS011;8527;49.740;6.604;2022-08-01T03:32:45;2.72;;;1.10;;
16820;SDS011;8527;49.740;6.604;2022-08-01T03:37:44;1.55;;;1.23;;
16820;SDS011;8527;49.740;6.604;2022-08-01T03:42:46;1.20;;;1.05;;
16820;SDS011;8527;49.740;6.604;2022-08-01T03:48:05;2.83;;;1.17;;
16820;SDS011;8527;49.740;6.604;2022-08-01T03:53:06;3.72;;;1.63;;
16820;SDS011;8527;49.740;6.604;2022-08-01T03:58:27;2.25;;;1.10;;
16820;SDS011;8527;49.740;6.604;2022-08-01T04:03:31;1.67;;;1.05;;
16820;SDS011;8527;49.740;6.604;2022-08-01T04:08:41;5.45;;;1.25;;
16820;SDS011;8527;49.740;6.604;2022-08-01T04:13:50;1.63;;;0.90;;
16820;SDS011;8527;49.740;6.604;2022-08-01T04:18:53;1.60;;;1.20;;
16820;SDS011;8527;49.740;6.604;2022-08-01T04:23:58;1.58;;;1.10;;
16820;SDS011;8527;49.740;6.604;2022-08-01T04:29:00;2.95;;;1.27;;
16820;SDS011;8527;49.740;6.604;2022-08-01T04:34:04;3.08;;;1.10;;
16820;SDS011;8527;49.740;6.604;2022-08-01T04:39:05;2.83;;;1.33;;
16820;SDS011;8527;49.740;6.604;2022-08-01T04:44:07;3.47;;;1.30;;
16820;SDS011;8527;49.740;6.604;2022-08-01T04:49:14;3.40;;;1.35;;
16820;SDS011;8527;49.740;6.604;2022-08-01T04:54:20;1.20;;;1.10;;
16820;SDS011;8527;49.740;6.604;2022-08-01T04:59:21;6.93;;;1.27;;
16820;SDS011;8527;49.740;6.604;2022-08-01T05:04:44;1.90;;;1.08;;
16820;SDS011;8527;49.740;6.604;2022-08-01T05:09:43;2.15;;;1.20;;
16820;SDS011;8527;49.740;6.604;2022-08-01T05:14:42;4.60;;;1.40;;
16820;SDS011;8527;49.740;6.604;2022-08-01T05:19:44;2.28;;;1.60;;
16820;SDS011;8527;49.740;6.604;2022-08-01T05:24:42;3.45;;;1.45;;
16820;SDS011;8527;49.740;6.604;2022-08-01T05:29:44;9.32;;;1.73;;
16820;SDS011;8527;49.740;6.604;2022-08-01T05:34:46;1.83;;;1.25;;
16820;SDS011;8527;49.740;6.604;2022-08-01T05:39:45;2.90;;;1.63;;
16820;SDS011;8527;49.740;6.604;2022-08-01T05:44:44;4.45;;;2.13;;
16820;SDS011;8527;49.740;6.604;2022-08-01T05:49:42;3.25;;;2.05;;
16820;SDS011;8527;49.740;6.604;2022-08-01T05:54:44;2.83;;;1.50;;
16820;SDS011;8527;49.740;6.604;2022-08-01T05:59:45;7.95;;;2.20;;
16820;SDS011;8527;49.740;6.604;2022-08-01T06:04:46;4.80;;;2.20;;
16820;SDS011;8527;49.740;6.604;2022-08-01T06:09:44;3.38;;;2.15;;
16820;SDS011;8527;49.740;6.604;2022-08-01T06:14:42;2.13;;;1.67;;
16820;SDS011;8527;49.740;6.604;2022-08-01T06:19:41;5.63;;;1.65;;
16820;SDS011;8527;49.740;6.604;2022-08-01T06:24:42;2.75;;;1.80;;
16820;SDS011;8527;49.740;6.604;2022-08-01T06:29:41;3.92;;;1.40;;
16820;SDS011;8527;49.740;6.604;2022-08-01T06:34:40;2.05;;;1.80;;
16820;SDS011;8527;49.740;6.604;2022-08-01T06:39:38;2.58;;;1.77;;
16820;SDS011;8527;49.740;6.604;2022-08-01T06:44:39;1.55;;;1.40;;
16820;SDS011;8527;49.740;6.604;2022-08-01T06:49:37;1.83;;;1.40;;
16820;SDS011;8527;49.740;6.604;2022-08-01T06:54:39;3.70;;;1.52;;
16820;SDS011;8527;49.740;6.604;2022-08-01T06:59:45;1.75;;;1.60;;
16820;SDS011;8527;49.740;6.604;2022-08-01T07:04:44;1.60;;;1.50;;
16820;SDS011;8527;49.740;6.604;2022-08-01T07:09:45;2.60;;;1.60;;
16820;SDS011;8527;49.740;6.604;2022-08-01T07:14:49;2.00;;;1.60;;
16820;SDS011;8527;49.740;6.604;2022-08-01T07:19:48;2.58;;;1.70;;
16820;SDS011;8527;49.740;6.604;2022-08-01T07:24:46;3.72;;;1.48;;
16820;SDS011;8527;49.740;6.604;2022-08-01T07:29:45;1.67;;;1.38;;
16820;SDS011;8527;49.740;6.604;2022-08-01T07:34:50;1.85;;;1.35;;
16820;SDS011;8527;49.740;6.604;2022-08-01T07:39:51;3.33;;;1.70;;
16820;SDS011;8527;49.740;6.604;2022-08-01T07:44:52;2.63;;;1.60;;
16820;SDS011;8527;49.740;6.604;2022-08-01T07:49:51;4.07;;;1.60;;
16820;SDS011;8527;49.740;6.604;2022-08-01T07:54:59;1.95;;;1.70;;
16820;SDS011;8527;49.740;6.604;2022-08-01T08:00:01;6.60;;;1.95;;
16820;SDS011;8527;49.740;6.604;2022-08-01T08:05:08;3.63;;;1.75;;
16820;SDS011;8527;49.740;6.604;2022-08-01T08:10:11;2.17;;;1.70;;
16820;SDS011;8527;49.740;6.604;2022-08-01T08:15:12;2.80;;;1.83;;
16820;SDS011;8527;49.740;6.604;2022-08-01T08:20:23;4.30;;;1.60;;
16820;SDS011;8527;49.740;6.604;2022-08-01T08:25:24;2.28;;;1.63;;
16820;SDS011;8527;49.740;6.604;2022-08-01T08:30:26;1.83;;;1.67;;
16820;SDS011;8527;49.740;6.604;2022-08-01T08:35:25;2.25;;;1.60;;
16820;SDS011;8527;49.740;6.604;2022-08-01T08:40:23;2.03;;;1.48;;
16820;SDS011;8527;49.740;6.604;2022-08-01T08:45:30;2.65;;;1.80;;
16820;SDS011;8527;49.740;6.604;2022-08-01T08:50:29;4.63;;;1.73;;
16820;SDS011;8527;49.740;6.604;2022-08-01T08:55:29;1.85;;;1.45;;
16820;SDS011;8527;49.740;6.604;2022-08-01T09:00:36;2.05;;;1.67;;
16820;SDS011;8527;49.740;6.604;2022-08-01T09:05:36;3.70;;;1.63;;
16820;SDS011;8527;49.740;6.604;2022-08-01T09:10:34;3.20;;;1.70;;
16820;SDS011;8527;49.740;6.604;2022-08-01T09:15:43;3.25;;;2.03;;
16820;SDS011;8527;49.740;6.604;2022-08-01T09:20:47;2.70;;;1.50;;
16820;SDS011;8527;49.740;6.604;2022-08-01T09:25:52;3.13;;;1.08;;
16820;SDS011;8527;49.740;6.604;2022-08-01T09:30:54;1.23;;;1.17;;
16820;SDS011;8527;49.740;6.604;2022-08-01T09:35:54;1.38;;;1.27;;
16820;SDS011;8527;49.740;6.604;2022-08-01T09:40:54;2.83;;;1.75;;
16820;SDS011;8527;49.740;6.604;2022-08-01T09:45:57;2.97;;;1.40;;
16820;SDS011;8527;49.740;6.604;2022-08-01T09:50:56;1.80;;;1.52;;
16820;SDS011;8527;49.740;6.604;2022-08-01T09:56:01;1.25;;;1.17;;
16820;SDS011;8527;49.740;6.604;2022-08-01T10:01:11;2.25;;;1.50;;
16820;SDS011;8527;49.740;6.604;2022-08-01T10:06:19;1.30;;;1.20;;
16820;SDS011;8527;49.740;6.604;2022-08-01T10:11:18;3.27;;;1.53;;
16820;SDS011;8527;49.740;6.604;2022-08-01T10:16:32;1.55;;;1.30;;
16820;SDS011;8527;49.740;6.604;2022-08-01T10:21:33;1.13;;;1.13;;
16820;SDS011;8527;49.740;6.604;2022-08-01T10:26:33;2.65;;;1.25;;
16820;SDS011;8527;49.740;6.604;2022-08-01T10:31:35;1.85;;;1.75;;
16820;SDS011;8527;49.740;6.604;2022-08-01T10:36:38;2.58;;;1.88;;
16820;SDS011;8527;49.740;6.604;2022-08-01T10:41:36;4.15;;;1.60;;
16820;SDS011;8527;49.740;6.604;2022-08-01T10:46:39;1.73;;;1.63;;
16820;SDS011;8527;49.740;6.604;2022-08-01T10:51:44;3.40;;;1.60;;
16820;SDS011;8527;49.740;6.604;2022-08-01T10:56:47;3.67;;;1.85;;
16820;SDS011;8527;49.740;6.604;2022-08-01T11:01:58;2.92;;;1.50;;
16820;SDS011;8527;49.740;6.604;2022-08-01T11:07:04;1.90;;;1.80;;
16820;SDS011;8527;49.740;6.604;2022-08-01T11:12:05;1.70;;;1.60;;
16820;SDS011;8527;49.740;6.604;2022-08-01T11:28:31;3.30;;;1.85;;
16820;SDS011;8527;49.740;6.604;2022-08-01T11:44:14;2.13;;;1.67;;
16820;SDS011;8527;49.740;6.604;2022-08-01T11:49:28;2.47;;;2.00;;
16820;SDS011;8527;49.740;6.604;2022-08-01T11:54:37;2.45;;;1.77;;
16820;SDS011;8527;49.740;6.604;2022-08-01T11:59:37;2.38;;;1.85;;
16820;SDS011;8527;49.740;6.604;2022-08-01T12:04:50;1.90;;;1.63;;
16820;SDS011;8527;49.740;6.604;2022-08-01T12:09:56;6.20;;;1.60;;
16820;SDS011;8527;49.740;6.604;2022-08-01T12:14:57;1.83;;;1.50;;
16820;SDS011;8527;49.740;6.604;2022-08-01T12:20:03;1.70;;;1.60;;
16820;SDS011;8527;49.740;6.604;2022-08-01T12:25:07;2.55;;;1.60;;
16820;SDS011;8527;49.740;6.604;2022-08-01T12:30:08;1.45;;;1.35;;
16820;SDS011;8527;49.740;6.604;2022-08-01T12:35:13;2.35;;;1.38;;
16820;SDS011;8527;49.740;6.604;2022-08-01T12:40:21;1.50;;;1.40;;
16820;SDS011;8527;49.740;6.604;2022-08-01T12:45:30;1.92;;;1.30;;
16820;SDS011;8527;49.740;6.604;2022-08-01T12:50:35;1.23;;;1.13;;
16820;SDS011;8527;49.740;6.604;2022-08-01T12:55:45;3.30;;;1.23;;
16820;SDS011;8527;49.740;6.604;2022-08-01T13:01:01;2.65;;;1.60;;
16820;SDS011;8527;49.740;6.604;2022-08-01T13:06:12;1.45;;;1.10;;
16820;SDS011;8527;49.740;6.604;2022-08-01T13:11:12;5.20;;;1.70;;
16820;SDS011;8527;49.740;6.604;2022-08-01T13:16:14;1.42;;;1.30;;
16820;SDS011;8527;49.740;6.604;2022-08-01T13:21:17;1.85;;;1.50;;
16820;SDS011;8527;49.740;6.604;2022-08-01T13:26:16;1.55;;;1.20;;
16820;SDS011;8527;49.740;6.604;2022-08-01T13:31:15;1.98;;;1.42;;
16820;SDS011;8527;49.740;6.604;2022-08-01T13:36:16;2.35;;;1.40;;
16820;SDS011;8527;49.740;6.604;2022-08-01T13:41:17;1.77;;;1.55;;
16820;SDS011;8527;49.740;6.604;2022-08-01T13:46:15;3.72;;;1.58;;
16820;SDS011;8527;49.740;6.604;2022-08-01T13:51:17;1.65;;;1.52;;
16820;SDS011;8527;49.740;6.604;2022-08-01T13:56:15;1.65;;;1.45;;
16820;SDS011;8527;49.740;6.604;2022-08-01T14:01:15;1.70;;;1.60;;
16820;SDS011;8527;49.740;6.604;2022-08-01T14:06:19;1.90;;;1.70;;
16820;SDS011;8527;49.740;6.604;2022-08-01T14:11:18;3.90;;;1.50;;
16820;SDS011;8527;49.740;6.604;2022-08-01T14:16:22;1.30;;;1.30;;
16820;SDS011;8527;49.740;6.604;2022-08-01T14:21:26;2.30;;;1.40;;
16820;SDS011;8527;49.740;6.604;2022-08-01T14:26:24;2.95;;;1.17;;
16820;SDS011;8527;49.740;6.604;2022-08-01T14:31:26;1.58;;;1.20;;
16820;SDS011;8527;49.740;6.604;2022-08-01T14:36:27;1.58;;;1.45;;
16820;SDS011;8527;49.740;6.604;2022-08-01T14:41:34;1.52;;;1.42;;
16820;SDS011;8527;49.740;6.604;2022-08-01T14:46:34;1.85;;;1.45;;
16820;SDS011;8527;49.740;6.604;2022-08-01T14:51:39;1.83;;;1.35;;
16820;SDS011;8527;49.740;6.604;2022-08-01T14:56:37;3.53;;;1.70;;
16820;SDS011;8527;49.740;6.604;2022-08-01T15:01:38;1.55;;;1.45;;
16820;SDS011;8527;49.740;6.604;2022-08-01T15:06:40;4.93;;;1.52;;
16820;SDS011;8527;49.740;6.604;2022-08-01T15:11:38;1.55;;;1.45;;
16820;SDS011;8527;49.740;6.604;2022-08-01T15:16:39;1.48;;;1.38;;
16820;SDS011;8527;49.740;6.604;2022-08-01T15:21:40;4.03;;;1.40;;
16820;SDS011;8527;49.740;6.604;2022-08-01T15:26:39;2.20;;;1.60;;
16820;SDS011;8527;49.740;6.604;2022-08-01T15:31:37;1.27;;;1.17;;
16820;SDS011;8527;49.740;6.604;2022-08-01T15:36:36;2.40;;;1.30;;
16820;SDS011;8527;49.740;6.604;2022-08-01T15:41:40;2.00;;;1.65;;
16820;SDS011;8527;49.740;6.604;2022-08-01T15:46:39;3.53;;;1.55;;
16820;SDS011;8527;49.740;6.604;2022-08-01T15:51:37;3.17;;;1.60;;
16820;SDS011;8527;49.740;6.604;2022-08-01T15:56:41;2.70;;;1.35;;
16820;SDS011;8527;49.740;6.604;2022-08-01T16:01:40;3.08;;;1.55;;
16820;SDS011;8527;49.740;6.604;2022-08-01T16:06:42;1.33;;;1.23;;
16820;SDS011;8527;49.740;6.604;2022-08-01T16:11:43;2.40;;;1.23;;
16820;SDS011;8527;49.740;6.604;2022-08-01T16:16:42;2.97;;;1.30;;
16820;SDS011;8527;49.740;6.604;2022-08-01T16:21:40;1.13;;;1.13;;
16820;SDS011;8527;49.740;6.604;2022-08-01T16:26:39;1.40;;;1.30;;
16820;SDS011;8527;49.740;6.604;2022-08-01T16:31:40;1.73;;;1.35;;
16820;SDS011;8527;49.740;6.604;2022-08-01T16:36:38;1.23;;;1.13;;
16820;SDS011;8527;49.740;6.604;2022-08-01T16:41:39;1.20;;;1.20;;
16820;SDS011;8527;49.740;6.604;2022-08-01T16:46:41;1.42;;;1.27;;
16820;SDS011;8527;49.740;6.604;2022-08-01T16:51:42;5.13;;;1.63;;
16820;SDS011;8527;49.740;6.604;2022-08-01T16:56:43;1.45;;;1.38;;
16820;SDS011;8527;49.740;6.604;2022-08-01T17:01:44;1.88;;;1.50;;
16820;SDS011;8527;49.740;6.604;2022-08-01T17:06:45;2.97;;;2.03;;
16820;SDS011;8527;49.740;6.604;2022-08-01T17:11:46;3.45;;;1.50;;
16820;SDS011;8527;49.740;6.604;2022-08-01T17:16:48;1.17;;;1.17;;
16820;SDS011;8527;49.740;6.604;2022-08-01T17:21:46;1.60;;;1.50;;
16820;SDS011;8527;49.740;6.604;2022-08-01T17:26:46;1.55;;;1.42;;
16820;SDS011;8527;49.740;6.604;2022-08-01T17:31:44;1.73;;;1.63;;
16820;SDS011;8527;49.740;6.604;2022-08-01T17:36:45;1.80;;;1.70;;
16820;SDS011;8527;49.740;6.604;2022-08-01T17:41:44;2.15;;;1.50;;
16820;SDS011;8527;49.740;6.604;2022-08-01T17:46:42;2.55;;;1.40;;
16820;SDS011;8527;49.740;6.604;2022-08-01T17:51:44;1.60;;;1.40;;
16820;SDS011;8527;49.740;6.604;2022-08-01T17:56:45;4.43;;;1.85;;
16820;SDS011;8527;49.740;6.604;2022-08-01T18:01:44;4.10;;;1.85;;
16820;SDS011;8527;49.740;6.604;2022-08-01T18:06:45;1.42;;;1.33;;
16820;SDS011;8527;49.740;6.604;2022-08-01T18:11:46;4.22;;;1.98;;
16820;SDS011;8527;49.740;6.604;2022-08-01T18:16:45;12.32;;;2.40;;
16820;SDS011;8527;49.740;6.604;2022-08-01T18:21:46;3.15;;;1.45;;
16820;SDS011;8527;49.740;6.604;2022-08-01T18:26:45;3.05;;;1.50;;
16820;SDS011;8527;49.740;6.604;2022-08-01T18:31:45;3.42;;;1.80;;
16820;SDS011;8527;49.740;6.604;2022-08-01T18:36:48;1.58;;;1.45;;
16820;SDS011;8527;49.740;6.604;2022-08-01T18:41:46;1.55;;;1.42;;
16820;SDS011;8527;49.740;6.604;2022-08-01T18:46:45;2.25;;;1.30;;
16820;SDS011;8527;49.740;6.604;2022-08-01T18:51:44;1.77;;;1.40;;
16820;SDS011;8527;49.740;6.604;2022-08-01T18:56:46;1.42;;;1.33;;
16820;SDS011;8527;49.740;6.604;2022-08-01T19:01:45;1.70;;;1.08;;
16820;SDS011;8527;49.740;6.604;2022-08-01T19:06:43;2.17;;;1.17;;
16820;SDS011;8527;49.740;6.604;2022-08-01T19:11:42;1.27;;;1.17;;
16820;SDS011;8527;49.740;6.604;2022-08-01T19:16:43;1.33;;;1.23;;
16820;SDS011;8527;49.740;6.604;2022-08-01T19:21:42;1.60;;;1.50;;
16820;SDS011;8527;49.740;6.604;2022-08-01T19:31:44;1.80;;;1.70;;
16820;SDS011;8527;49.740;6.604;2022-08-01T19:36:51;1.90;;;1.50;;
16820;SDS011;8527;49.740;6.604;2022-08-01T19:41:51;2.05;;;1.85;;
16820;SDS011;8527;49.740;6.604;2022-08-01T19:46:54;2.17;;;1.90;;
16820;SDS011;8527;49.740;6.604;2022-08-01T19:51:54;2.95;;;1.83;;
16820;SDS011;8527;49.740;6.604;2022-08-01T19:56:58;1.77;;;1.67;;
16820;SDS011;8527;49.740;6.604;2022-08-01T20:02:04;2.22;;;2.03;;
16820;SDS011;8527;49.740;6.604;2022-08-01T20:07:02;1.60;;;1.50;;
16820;SDS011;8527;49.740;6.604;2022-08-01T20:12:01;2.33;;;2.05;;
16820;SDS011;8527;49.740;6.604;2022-08-01T20:17:05;2.70;;;1.80;;
16820;SDS011;8527;49.740;6.604;2022-08-01T20:22:05;3.25;;;1.65;;
16820;SDS011;8527;49.740;6.604;2022-08-01T20:27:04;2.67;;;1.80;;
16820;SDS011;8527;49.740;6.604;2022-08-01T20:32:09;4.25;;;1.92;;
16820;SDS011;8527;49.740;6.604;2022-08-01T20:37:09;2.05;;;1.83;;
16820;SDS011;8527;49.740;6.604;2022-08-01T20:42:07;2.13;;;1.92;;
16820;SDS011;8527;49.740;6.604;2022-08-01T20:47:09;2.97;;;2.10;;
16820;SDS011;8527;49.740;6.604;2022-08-01T20:52:11;6.50;;;2.20;;
16820;SDS011;8527;49.740;6.604;2022-08-01T20:57:13;4.13;;;2.00;;
16820;SDS011;8527;49.740;6.604;2022-08-01T21:07:47;3.60;;;1.83;;
16820;SDS011;8527;49.740;6.604;2022-08-01T21:12:48;2.67;;;2.20;;
16820;SDS011;8527;49.740;6.604;2022-08-01T21:17:59;3.58;;;2.30;;
16820;SDS011;8527;49.740;6.604;2022-08-01T21:23:17;2.40;;;2.20;;
16820;SDS011;8527;49.740;6.604;2022-08-01T21:28:31;2.40;;;2.20;;
16820;SDS011;8527;49.740;6.604;2022-08-01T21:33:34;2.95;;;2.25;;
16820;SDS011;8527;49.740;6.604;2022-08-01T21:38:36;2.80;;;2.50;;
16820;SDS011;8527;49.740;6.604;2022-08-01T21:43:38;6.03;;;2.40;;
16820;SDS011;8527;49.740;6.604;2022-08-01T21:48:42;2.28;;;2.08;;
16820;SDS011;8527;49.740;6.604;2022-08-01T21:53:45;3.50;;;2.40;;
16820;SDS011;8527;49.740;6.604;2022-08-01T21:58:49;4.10;;;2.45;;
16820;SDS011;8527;49.740;6.604;2022-08-01T22:04:00;2.83;;;2.50;;
16820;SDS011;8527;49.740;6.604;2022-08-01T22:09:05;2.53;;;2.33;;
16820;SDS011;8527;49.740;6.604;2022-08-01T22:14:09;2.50;;;2.30;;
16820;SDS011;8527;49.740;6.604;2022-08-01T22:19:14;3.90;;;2.47;;
16820;SDS011;8527;49.740;6.604;2022-08-01T22:24:16;2.92;;;2.63;;
16820;SDS011;8527;49.740;6.604;2022-08-01T22:29:15;5.78;;;2.88;;
16820;SDS011;8527;49.740;6.604;2022-08-01T22:34:18;3.78;;;2.80;;
16820;SDS011;8527;49.740;6.604;2022-08-01T22:39:23;3.17;;;2.80;;
16820;SDS011;8527;49.740;6.604;2022-08-01T22:44:24;3.35;;;2.83;;
16820;SDS011;8527;49.740;6.604;2022-08-01T22:49:47;3.88;;;2.78;;
16820;SDS011;8527;49.740;6.604;2022-08-01T22:54:54;4.15;;;3.05;;
16820;SDS011;8527;49.740;6.604;2022-08-01T23:00:15;3.60;;;2.80;;
16820;SDS011;8527;49.740;6.604;2022-08-01T23:05:17;3.35;;;3.05;;
16820;SDS011;8527;49.740;6.604;2022-08-01T23:10:19;4.88;;;3.08;;
16820;SDS011;8527;49.740;6.604;2022-08-01T23:15:20;3.50;;;3.00;;
16820;SDS011;8527;49.740;6.604;2022-08-01T23:20:21;2.88;;;2.67;;
16820;SDS011;8527;49.740;6.604;2022-08-01T23:25:20;4.22;;;3.22;;
16820;SDS011;8527;49.740;6.604;2022-08-01T23:30:21;4.65;;;3.17;;
16820;SDS011;8527;49.740;6.604;2022-08-01T23:35:24;8.90;;;3.47;;
16820;SDS011;8527;49.740;6.604;2022-08-01T23:40:23;3.72;;;3.35;;
16820;SDS011;8527;49.740;6.604;2022-08-01T23:45:25;3.88;;;3.40;;
16820;SDS011;8527;49.740;6.604;2022-08-01T23:50:26;5.07;;;3.58;;
16820;SDS011;8527;49.740;6.604;2022-08-01T23:55:28;4.63;;;3.65;;
